Time;durP1;ratioP1;P1;durP2;ratioP2;P2;SDS_P1;SDS_P2;PMS_P1;PMS_P2;Temp;Humidity;BMP_temperature;BMP_pressure;BME280_temperature;BME280_humidity;BME280_pressure;Samples;Min_cycle;Max_cycle;Signal;HPM_P1;HPM_P2
2022/04/23 00:01:14;;;;;;;20.67;12.63;;;;;;;9.40;85.03;95112.72;4919578;28;20059;-66
2022/04/23 00:03:39;;;;;;;17.75;13.02;;;;;;;9.45;84.84;95111.53;4924559;28;20082;-67
2022/04/23 00:06:04;;;;;;;21.75;12.93;;;;;;;9.41;85.18;95124.44;4942594;28;20043;-67
2022/04/23 00:08:30;;;;;;;18.80;12.02;;;;;;;9.38;84.82;95112.34;4959095;28;20507;-67
2022/04/23 00:10:55;;;;;;;18.48;12.43;;;;;;;9.35;84.96;95113.16;4961042;28;20408;-66
2022/04/23 00:13:21;;;;;;;23.10;13.10;;;;;;;9.29;85.58;95118.25;4958065;28;20078;-66
2022/04/23 00:15:47;;;;;;;18.80;12.70;;;;;;;9.28;85.50;95118.63;4961272;28;20043;-66
2022/04/23 00:18:12;;;;;;;18.80;12.43;;;;;;;9.24;86.22;95109.66;4956255;28;20439;-67
2022/04/23 00:20:38;;;;;;;20.02;12.55;;;;;;;9.21;85.69;95107.75;4949683;28;20055;-67
2022/04/23 00:23:05;;;;;;;19.63;13.13;;;;;;;9.16;86.18;95106.19;4939004;28;20053;-67
2022/04/23 00:25:31;;;;;;;18.60;13.00;;;;;;;9.09;86.80;95114.41;4941912;28;20396;-67
2022/04/23 00:27:57;;;;;;;19.60;12.85;;;;;;;9.16;86.64;95106.97;4943144;28;20441;-67
2022/04/23 00:30:23;;;;;;;18.45;13.05;;;;;;;9.05;87.13;95111.69;4937651;28;20054;-67
2022/04/23 00:32:48;;;;;;;20.73;13.35;;;;;;;8.99;87.94;95110.53;4942994;28;20055;-67
2022/04/23 00:35:17;;;;;;;20.05;13.32;;;;;;;8.97;87.31;95110.94;4948781;28;20039;-67
2022/04/23 00:37:44;;;;;;;23.40;14.77;;;;;;;9.01;87.79;95110.94;4961855;28;20047;-67
2022/04/23 00:40:16;;;;;;;23.55;15.15;;;;;;;8.95;88.46;95116.00;4956112;28;20416;-68
2022/04/23 00:42:51;;;;;;;20.58;14.57;;;;;;;8.92;88.49;95113.28;4962562;28;20039;-67
2022/04/23 00:45:18;;;;;;;23.23;15.20;;;;;;;8.92;88.37;95107.84;4956171;28;20066;-67
2022/04/23 00:47:43;;;;;;;21.50;13.75;;;;;;;8.90;88.65;95104.72;4952920;28;20043;-67
2022/04/23 00:50:09;;;;;;;22.25;13.30;;;;;;;8.86;88.90;95106.66;4937022;28;20131;-64
2022/04/23 00:52:35;;;;;;;23.52;13.90;;;;;;;8.93;88.15;95101.19;4924999;29;20048;-66
2022/04/23 00:55:03;;;;;;;21.67;14.20;;;;;;;8.92;88.32;95105.88;4929066;29;20040;-65
2022/04/23 00:57:29;;;;;;;25.92;15.10;;;;;;;8.94;88.22;95098.06;4932397;29;20604;-65
2022/04/23 00:59:54;;;;;;;21.50;14.80;;;;;;;8.86;88.51;95095.75;4929342;28;20048;-65
2022/04/23 01:02:19;;;;;;;22.52;14.95;;;;;;;8.79;88.87;95099.28;4927831;28;20133;-67
2022/04/23 01:04:46;;;;;;;21.60;14.93;;;;;;;8.80;88.90;95101.63;4953054;28;20039;-66
2022/04/23 01:07:13;;;;;;;23.90;16.00;;;;;;;8.84;89.09;95098.91;4940020;28;20051;-65
2022/04/23 01:09:39;;;;;;;26.95;16.58;;;;;;;8.74;89.20;95097.72;4946272;28;20047;-65
2022/04/23 01:12:05;;;;;;;23.10;15.18;;;;;;;8.75;89.46;95095.78;4942092;28;20053;-65
2022/04/23 01:14:31;;;;;;;28.33;16.48;;;;;;;8.74;89.88;95096.97;4945676;28;20101;-66
2022/04/23 01:16:56;;;;;;;24.65;17.25;;;;;;;8.68;89.76;95102.03;4946336;28;20047;-65
2022/04/23 01:19:22;;;;;;;25.60;16.85;;;;;;;8.60;91.12;95109.44;4950853;28;20054;-65
2022/04/23 01:21:47;;;;;;;27.55;16.80;;;;;;;8.54;91.03;95108.31;4965899;28;20496;-65
2022/04/23 01:24:15;;;;;;;23.17;16.02;;;;;;;8.59;91.56;95107.13;4960406;28;20122;-66
2022/04/23 01:26:41;;;;;;;27.08;16.83;;;;;;;8.59;91.54;95105.19;4950544;28;20401;-65
2022/04/23 01:29:06;;;;;;;23.98;16.92;;;;;;;8.59;91.95;95116.09;4947825;28;20035;-65
2022/04/23 01:31:32;;;;;;;27.42;17.60;;;;;;;8.50;92.27;95114.91;4954154;28;20130;-66
2022/04/23 01:33:57;;;;;;;29.95;17.48;;;;;;;8.46;92.52;95117.66;4952333;28;20413;-66
2022/04/23 01:36:23;;;;;;;26.55;17.58;;;;;;;8.38;93.27;95116.84;4954696;28;20027;-67
2022/04/23 01:38:48;;;;;;;27.15;17.95;;;;;;;8.34;93.66;95116.09;4955562;29;20511;-65
2022/04/23 01:41:14;;;;;;;26.27;17.42;;;;;;;8.30;94.35;95120.78;4943045;29;20039;-67
2022/04/23 01:43:39;;;;;;;25.30;16.52;;;;;;;8.25;94.13;95118.44;4949736;28;20532;-66
2022/04/23 01:46:05;;;;;;;28.45;19.13;;;;;;;8.27;94.82;95121.53;4954420;28;20039;-66
2022/04/23 01:48:30;;;;;;;31.10;19.63;;;;;;;8.26;95.13;95124.66;4955055;29;20070;-66
2022/04/23 01:50:56;;;;;;;28.17;18.65;;;;;;;8.19;95.53;95120.78;4954781;28;20089;-66
2022/04/23 01:53:22;;;;;;;32.88;20.60;;;;;;;8.21;95.30;95128.53;4955101;28;20086;-66
2022/04/23 01:55:51;;;;;;;30.83;20.70;;;;;;;8.12;96.54;95131.69;4954426;29;20042;-67
2022/04/23 01:58:17;;;;;;;33.83;19.60;;;;;;;8.09;96.58;95126.22;4954806;29;20050;-66
2022/04/23 02:00:44;;;;;;;31.20;20.67;;;;;;;8.24;96.00;95133.22;4955518;28;20031;-66
2022/04/23 02:03:09;;;;;;;29.85;19.55;;;;;;;8.22;96.16;95132.84;4955805;28;20086;-68
2022/04/23 02:05:34;;;;;;;31.05;20.15;;;;;;;8.16;96.18;95129.72;4955070;29;20043;-66
2022/04/23 02:08:00;;;;;;;37.17;22.23;;;;;;;8.15;97.03;95130.09;4954802;28;20047;-66
2022/04/23 02:10:25;;;;;;;31.17;19.85;;;;;;;8.09;97.54;95126.22;4954502;28;20130;-66
2022/04/23 02:12:51;;;;;;;42.35;21.15;;;;;;;8.00;97.94;95132.06;4954842;28;20054;-66
2022/04/23 02:15:17;;;;;;;32.22;20.65;;;;;;;8.02;98.26;95133.22;4954785;29;20035;-66
2022/04/23 02:17:45;;;;;;;34.58;20.25;;;;;;;8.09;98.14;95132.44;4958327;29;20035;-66
2022/04/23 02:20:13;;;;;;;30.65;19.63;;;;;;;8.04;98.74;95128.16;4959738;28;20075;-67
2022/04/23 02:22:39;;;;;;;33.80;22.00;;;;;;;8.04;98.46;95125.41;4951773;29;20043;-66
2022/04/23 02:25:06;;;;;;;34.25;21.00;;;;;;;8.03;98.50;95121.16;4946615;28;20051;-66
2022/04/23 02:27:46;;;;;;;32.13;21.27;;;;;;;7.97;100.00;95124.63;4937251;28;20035;-67
2022/04/23 02:30:13;;;;;;;34.08;22.23;;;;;;;7.90;100.00;95114.50;4934256;29;20032;-66
2022/04/23 02:32:40;;;;;;;36.83;23.20;;;;;;;7.87;100.00;95119.94;4943900;28;20062;-67
2022/04/23 02:35:06;;;;;;;33.17;22.73;;;;;;;7.75;100.00;95112.94;4954329;28;20444;-66
2022/04/23 02:37:34;;;;;;;37.53;23.02;;;;;;;7.69;100.00;95112.53;4953389;29;20043;-66
2022/04/23 02:39:59;;;;;;;36.63;22.35;;;;;;;7.63;100.00;95105.91;4953836;28;20054;-66
2022/04/23 02:42:25;;;;;;;36.50;23.00;;;;;;;7.61;100.00;95116.41;4954424;28;20031;-66
2022/04/23 02:44:50;;;;;;;37.00;24.05;;;;;;;7.50;100.00;95115.59;4954585;28;20066;-66
2022/04/23 02:47:17;;;;;;;37.30;23.98;;;;;;;7.42;100.00;95104.69;4953335;28;20043;-65
2022/04/23 02:49:42;;;;;;;38.75;23.85;;;;;;;7.32;100.00;95105.44;4953993;28;20042;-66
2022/04/23 02:52:07;;;;;;;41.42;24.30;;;;;;;7.24;100.00;95106.59;4954110;28;20031;-66
2022/04/23 02:54:33;;;;;;;38.78;25.55;;;;;;;7.18;100.00;95095.25;4952744;29;20031;-66
2022/04/23 02:56:58;;;;;;;48.42;25.52;;;;;;;7.18;100.00;95099.94;4953061;28;20042;-67
2022/04/23 02:59:23;;;;;;;41.58;26.15;;;;;;;7.16;100.00;95083.97;4953763;28;20034;-66
2022/04/23 03:01:49;;;;;;;44.00;28.30;;;;;;;7.08;100.00;95087.84;4936321;29;20098;-66
2022/04/23 03:04:16;;;;;;;46.55;28.75;;;;;;;7.01;100.00;95085.09;4953756;28;20082;-66
2022/04/23 03:06:41;;;;;;;46.55;31.33;;;;;;;6.99;100.00;95082.75;4952786;29;20032;-66
2022/04/23 03:09:06;;;;;;;50.70;32.30;;;;;;;6.94;100.00;95063.28;4953812;28;20034;-66
2022/04/23 03:11:32;;;;;;;55.20;30.25;;;;;;;6.91;100.00;95086.59;4953205;28;20031;-66
2022/04/23 03:14:03;;;;;;;53.55;32.53;;;;;;;6.96;100.00;95078.06;4953084;28;20393;-66
2022/04/23 03:16:29;;;;;;;56.55;32.55;;;;;;;6.92;100.00;95082.72;4951820;29;20082;-66
2022/04/23 03:18:54;;;;;;;57.28;32.42;;;;;;;6.88;100.00;95079.97;4953528;28;20134;-65
2022/04/23 03:21:20;;;;;;;57.70;34.47;;;;;;;6.86;100.00;95087.75;4953208;28;20126;-66
2022/04/23 03:23:45;;;;;;;57.65;36.33;;;;;;;6.84;100.00;95083.84;4942905;28;20043;-66
2022/04/23 03:26:10;;;;;;;58.72;36.92;;;;;;;6.88;100.00;95082.72;4933421;29;20067;-65
2022/04/23 03:28:36;;;;;;;61.13;34.58;;;;;;;6.84;100.00;95087.34;4949899;29;20400;-65
2022/04/23 03:31:02;;;;;;;62.67;36.75;;;;;;;6.87;100.00;95094.75;4953126;28;20074;-66
2022/04/23 03:33:28;;;;;;;62.85;36.75;;;;;;;6.85;100.00;95079.97;4953299;28;20028;-66
2022/04/23 03:35:54;;;;;;;60.97;36.17;;;;;;;6.89;100.00;95091.63;4952368;28;20049;-66
2022/04/23 03:38:19;;;;;;;60.50;35.63;;;;;;;6.89;100.00;95080.75;4953083;28;20035;-67
2022/04/23 03:40:48;;;;;;;63.10;37.42;;;;;;;6.97;100.00;95073.41;4951963;29;20053;-66
2022/04/23 03:43:15;;;;;;;61.65;36.90;;;;;;;6.96;100.00;95075.34;4956719;28;20039;-68
2022/04/23 03:45:40;;;;;;;60.75;37.35;;;;;;;6.95;100.00;95075.72;4961785;28;20094;-66
2022/04/23 03:48:06;;;;;;;60.90;36.85;;;;;;;6.96;100.00;95083.50;4964583;28;20030;-65
2022/04/23 03:50:32;;;;;;;60.88;35.97;;;;;;;7.00;100.00;95081.56;4970949;28;20096;-66
2022/04/23 03:52:58;;;;;;;66.35;37.92;;;;;;;6.99;100.00;95079.25;4973199;28;20035;-66
2022/04/23 03:55:25;;;;;;;67.78;37.05;;;;;;;7.01;100.00;95076.94;4960066;28;20086;-66
2022/04/23 03:57:54;;;;;;;64.22;38.03;;;;;;;7.02;100.00;95071.09;4972858;28;20034;-66
2022/04/23 04:00:21;;;;;;;62.95;37.47;;;;;;;7.03;100.00;95080.03;4973172;28;20035;-66
2022/04/23 04:02:46;;;;;;;60.92;36.70;;;;;;;7.04;100.00;95076.94;4973031;28;20027;-65
2022/04/23 04:05:12;;;;;;;63.67;39.03;;;;;;;7.20;100.00;95078.53;4973783;28;20086;-69
2022/04/23 04:07:43;;;;;;;57.67;35.42;;;;;;;7.17;100.00;95082.06;4968031;28;20045;-65
2022/04/23 04:10:13;;;;;;;60.88;35.15;;;;;;;7.20;100.00;95073.91;4965404;28;20042;-66
2022/04/23 04:12:40;;;;;;;59.33;35.88;;;;;;;7.22;100.00;95071.56;4973486;28;20039;-66
2022/04/23 04:15:07;;;;;;;56.17;34.15;;;;;;;7.21;100.00;95070.00;4960611;28;20035;-65
2022/04/23 04:17:34;;;;;;;58.55;36.80;;;;;;;7.27;100.00;95067.66;4961986;28;20038;-65
2022/04/23 04:20:00;;;;;;;60.20;36.22;;;;;;;7.33;100.00;95073.50;4965522;28;20539;-65
2022/04/23 04:22:26;;;;;;;58.17;34.67;;;;;;;7.35;100.00;95077.44;4963421;28;20039;-65
2022/04/23 04:24:52;;;;;;;63.50;37.35;;;;;;;7.29;100.00;95073.50;4964770;28;20110;-66
2022/04/23 04:27:17;;;;;;;61.28;35.25;;;;;;;7.31;100.00;95082.09;4970280;28;20085;-67
2022/04/23 04:29:43;;;;;;;62.63;35.15;;;;;;;7.30;100.00;95071.59;4973116;28;20428;-65
2022/04/23 04:32:08;;;;;;;60.17;38.03;;;;;;;7.35;100.00;95071.22;4965283;28;20031;-66
2022/04/23 04:34:34;;;;;;;60.20;35.30;;;;;;;7.37;100.00;95066.94;4964429;28;20114;-65
2022/04/23 04:37:02;;;;;;;57.40;34.70;;;;;;;7.39;100.00;95069.28;4971804;28;20026;-65
2022/04/23 04:39:30;;;;;;;59.15;36.10;;;;;;;7.40;100.00;95068.88;4972779;28;20030;-65
2022/04/23 04:41:56;;;;;;;61.42;35.63;;;;;;;7.43;100.00;95073.53;4971136;28;20089;-65
2022/04/23 04:44:22;;;;;;;54.33;33.55;;;;;;;7.49;100.00;95073.97;4972603;28;20035;-65
2022/04/23 04:46:47;;;;;;;62.25;36.13;;;;;;;7.41;100.00;95075.09;4964254;28;20042;-65
2022/04/23 04:49:13;;;;;;;58.38;37.00;;;;;;;7.47;100.00;95073.56;4964755;28;20029;-65
2022/04/23 04:51:38;;;;;;;57.95;35.10;;;;;;;7.49;100.00;95079.41;4972415;28;20388;-64
2022/04/23 04:54:04;;;;;;;55.30;33.83;;;;;;;7.54;100.00;95079.00;4972442;28;20078;-65
2022/04/23 04:56:30;;;;;;;62.88;35.08;;;;;;;7.57;100.00;95075.53;4971882;28;20034;-66
2022/04/23 04:58:55;;;;;;;60.85;33.70;;;;;;;7.60;100.00;95082.94;4972623;28;20077;-66
2022/04/23 05:01:21;;;;;;;56.53;34.08;;;;;;;7.69;100.00;95085.28;4966767;28;20125;-66
2022/04/23 05:03:47;;;;;;;54.17;33.03;;;;;;;7.73;100.00;95091.50;4958868;28;20039;-66
2022/04/23 05:06:13;;;;;;;53.55;33.05;;;;;;;7.74;100.00;95090.38;4963968;28;20027;-66
2022/04/23 05:08:38;;;;;;;53.88;32.22;;;;;;;7.82;100.00;95089.19;4972357;28;20084;-66
2022/04/23 05:11:05;;;;;;;50.10;30.88;;;;;;;8.03;100.00;95099.34;4972420;28;20035;-66
2022/04/23 05:13:30;;;;;;;49.47;30.38;;;;;;;8.07;100.00;95099.34;4972915;28;20042;-66
2022/04/23 05:15:56;;;;;;;52.35;31.95;;;;;;;8.09;100.00;95098.94;4971737;28;20388;-68
2022/04/23 05:18:22;;;;;;;48.80;31.30;;;;;;;7.99;100.00;95106.72;4971986;28;20044;-65
2022/04/23 05:20:48;;;;;;;46.90;30.63;;;;;;;8.04;100.00;95109.06;4958410;28;20039;-66
2022/04/23 05:23:13;;;;;;;46.53;28.80;;;;;;;8.04;100.00;95106.34;4957757;28;20039;-67
2022/04/23 05:25:39;;;;;;;47.15;28.65;;;;;;;8.16;100.00;95109.88;4953101;29;20039;-66
2022/04/23 05:28:04;;;;;;;46.38;28.90;;;;;;;8.40;100.00;95111.00;4953166;28;20095;-66
2022/04/23 05:30:30;;;;;;;45.03;28.42;;;;;;;8.48;100.00;95115.34;4951676;28;20097;-66
2022/04/23 05:32:55;;;;;;;45.28;27.55;;;;;;;8.55;100.00;95109.88;4964162;28;20108;-66
2022/04/23 05:35:21;;;;;;;42.83;27.80;;;;;;;8.35;100.00;95109.44;4970544;28;20035;-65
2022/04/23 05:37:46;;;;;;;40.97;25.63;;;;;;;8.21;100.00;95121.16;4973128;28;20419;-66
2022/04/23 05:40:12;;;;;;;46.47;27.85;;;;;;;8.43;100.00;95115.72;4975737;28;20133;-66
2022/04/23 05:42:38;;;;;;;45.22;27.38;;;;;;;8.45;100.00;95123.53;4958090;28;20077;-66
2022/04/23 05:45:04;;;;;;;43.85;27.85;;;;;;;8.46;100.00;95125.84;4968768;28;20115;-66
2022/04/23 05:47:30;;;;;;;44.45;25.95;;;;;;;8.80;100.00;95126.19;4966792;28;20594;-66
2022/04/23 05:49:55;;;;;;;42.42;27.08;;;;;;;8.76;100.00;95130.09;4975240;28;20030;-66
2022/04/23 05:52:20;;;;;;;41.90;26.08;;;;;;;8.61;100.00;95132.84;4967747;28;20507;-66
2022/04/23 05:54:46;;;;;;;43.20;26.58;;;;;;;8.91;100.00;95128.09;4966414;28;20031;-66
2022/04/23 05:57:11;;;;;;;42.85;25.70;;;;;;;8.98;100.00;95133.56;4974945;28;20065;-66
2022/04/23 05:59:37;;;;;;;43.03;25.80;;;;;;;9.35;100.00;95135.78;4975212;28;20062;-67
2022/04/23 06:02:03;;;;;;;38.88;25.90;;;;;;;9.41;100.00;95138.09;4974845;28;20383;-66
2022/04/23 06:04:29;;;;;;;39.45;26.48;;;;;;;8.86;100.00;95128.50;4975202;28;20026;-67
2022/04/23 06:06:55;;;;;;;41.17;26.65;;;;;;;8.72;100.00;95116.47;4965100;28;20531;-66
2022/04/23 06:09:21;;;;;;;40.95;25.52;;;;;;;8.83;100.00;95130.09;4967910;28;20034;-66
2022/04/23 06:11:46;;;;;;;43.17;26.38;;;;;;;8.95;100.00;95113.28;4955232;28;20031;-66
2022/04/23 06:14:12;;;;;;;43.80;26.08;;;;;;;9.02;100.00;95128.88;4970329;28;20030;-66
2022/04/23 06:16:37;;;;;;;39.92;25.05;;;;;;;9.18;100.00;95126.47;4963826;28;20035;-66
2022/04/23 06:19:04;;;;;;;41.67;25.33;;;;;;;9.47;100.00;95115.44;4962370;28;20039;-66
2022/04/23 06:21:30;;;;;;;44.17;26.90;;;;;;;9.68;100.00;95130.94;4961822;28;20065;-66
2022/04/23 06:23:55;;;;;;;42.00;25.80;;;;;;;9.54;100.00;95122.81;4967478;28;20026;-66
2022/04/23 06:26:21;;;;;;;41.45;25.85;;;;;;;9.72;100.00;95131.72;4979361;28;20034;-66
2022/04/23 06:28:46;;;;;;;38.40;24.92;;;;;;;10.47;100.00;95130.41;4974459;28;20165;-66
2022/04/23 06:31:11;;;;;;;39.00;23.95;;;;;;;10.31;99.35;95139.13;4973454;28;20042;-66
2022/04/23 06:33:37;;;;;;;38.33;24.10;;;;;;;9.77;100.00;95127.75;4973948;28;20035;-66
2022/04/23 06:36:03;;;;;;;40.00;26.33;;;;;;;9.31;100.00;95132.28;4966031;28;20023;-66
2022/04/23 06:38:28;;;;;;;42.28;26.33;;;;;;;9.53;100.00;95134.94;4965377;28;20361;-66
2022/04/23 06:40:54;;;;;;;38.90;24.17;;;;;;;9.87;100.00;95145.28;4973185;28;20058;-66
2022/04/23 06:43:19;;;;;;;39.85;25.80;;;;;;;9.51;100.00;95148.97;4974351;28;20034;-66
2022/04/23 06:45:44;;;;;;;41.20;25.38;;;;;;;9.75;100.00;95144.56;4973204;28;20031;-66
2022/04/23 06:48:10;;;;;;;42.28;25.42;;;;;;;9.85;100.00;95137.50;4967560;28;20038;-66
2022/04/23 06:50:36;;;;;;;39.22;25.95;;;;;;;9.61;100.00;95141.13;4964102;28;20031;-66
2022/04/23 06:53:03;;;;;;;41.67;24.40;;;;;;;9.93;100.00;95141.72;4956889;28;20034;-66
2022/04/23 06:55:30;;;;;;;39.22;24.27;;;;;;;10.20;100.00;95143.13;4973465;28;20043;-66
2022/04/23 06:57:56;;;;;;;42.22;27.35;;;;;;;9.50;100.00;95141.94;4980154;28;20555;-65
2022/04/23 07:00:22;;;;;;;37.88;23.95;;;;;;;9.48;100.00;95144.31;4962021;28;20035;-66
2022/04/23 07:02:49;;;;;;;39.75;23.52;;;;;;;9.81;100.00;95147.66;4961248;28;20051;-66
2022/04/23 07:05:15;;;;;;;43.00;25.05;;;;;;;10.04;100.00;95138.91;4954640;28;20031;-66
2022/04/23 07:07:40;;;;;;;42.25;26.15;;;;;;;9.69;100.00;95143.44;4954168;28;20033;-66
2022/04/23 07:10:06;;;;;;;43.55;27.40;;;;;;;9.52;100.00;95152.50;4954416;28;20480;-66
2022/04/23 07:12:33;;;;;;;40.80;24.58;;;;;;;9.83;100.00;95144.50;4953054;28;20031;-67
2022/04/23 07:14:59;;;;;;;37.40;23.13;;;;;;;9.90;100.00;95141.75;4964362;28;20034;-66
2022/04/23 07:17:26;;;;;;;40.35;24.27;;;;;;;9.94;100.00;95145.25;4973089;28;20027;-66
2022/04/23 07:19:53;;;;;;;43.30;24.67;;;;;;;10.20;100.00;95132.19;4970717;28;20034;-67
2022/04/23 07:22:20;;;;;;;44.72;26.17;;;;;;;9.85;100.00;95132.03;4965623;28;20053;-67
2022/04/23 07:24:47;;;;;;;38.72;25.48;;;;;;;10.35;100.00;95138.34;4973725;28;20058;-67
2022/04/23 07:27:13;;;;;;;38.55;23.83;;;;;;;10.84;97.33;95133.59;4968412;28;20050;-67
2022/04/23 07:29:38;;;;;;;41.30;24.17;;;;;;;10.47;99.79;95144.09;4962347;28;20043;-66
2022/04/23 07:32:04;;;;;;;43.72;24.15;;;;;;;10.46;99.04;95144.50;4974005;28;20031;-66
2022/04/23 07:37:29;;;;;;;40.92;24.42;;;;;;;10.67;100.00;95133.38;4973105;28;20113;-68
2022/04/23 07:40:05;;;;;;;42.53;27.17;;;;;;;10.20;99.96;95132.94;4973224;28;20052;-67
2022/04/23 07:42:32;;;;;;;43.97;24.98;;;;;;;10.53;98.36;95130.75;4980582;28;20106;-69
2022/04/23 07:44:58;;;;;;;42.92;25.88;;;;;;;10.17;100.00;95136.47;4965434;28;20033;-67
2022/04/23 07:47:24;;;;;;;38.13;24.00;;;;;;;10.27;100.00;95135.63;4972721;28;20027;-69
2022/04/23 07:49:49;;;;;;;40.22;23.75;;;;;;;10.41;100.00;95147.69;4979742;28;20041;-67
2022/04/23 07:52:15;;;;;;;43.50;23.90;;;;;;;10.39;99.73;95142.63;4973379;28;20046;-67
2022/04/23 07:54:41;;;;;;;41.13;23.98;;;;;;;10.79;98.96;95139.53;4973095;28;20031;-67
2022/04/23 07:57:07;;;;;;;40.15;23.70;;;;;;;10.85;98.42;95135.16;4965843;28;20065;-67
2022/04/23 07:59:33;;;;;;;43.42;23.98;;;;;;;10.63;99.26;95146.31;4961230;28;20070;-67
2022/04/23 08:01:58;;;;;;;39.42;22.38;;;;;;;10.47;99.37;95146.06;4988421;28;20030;-66
2022/04/23 08:04:24;;;;;;;37.95;23.52;;;;;;;10.58;96.76;95140.50;4972943;28;20027;-65
2022/04/23 08:06:50;;;;;;;40.30;23.95;;;;;;;10.75;97.68;95136.84;4955095;28;20030;-66
2022/04/23 08:09:15;;;;;;;40.40;22.88;;;;;;;10.88;97.01;95139.84;4972882;28;20031;-66
2022/04/23 08:11:40;;;;;;;36.95;22.08;;;;;;;11.12;94.15;95145.47;4965805;28;20041;-67
2022/04/23 08:14:06;;;;;;;36.20;23.02;;;;;;;10.81;95.52;95137.16;4969377;28;20038;-67
2022/04/23 08:16:31;;;;;;;39.22;23.38;;;;;;;10.71;98.35;95138.81;4978525;28;20049;-67
2022/04/23 08:18:57;;;;;;;40.95;24.25;;;;;;;10.83;96.91;95141.03;4975389;28;20045;-66
2022/04/23 08:21:23;;;;;;;47.92;24.77;;;;;;;10.64;97.13;95147.09;4980354;28;20030;-67
2022/04/23 08:23:48;;;;;;;39.25;24.65;;;;;;;10.27;100.00;95135.63;4974542;28;20035;-67
2022/04/23 08:26:13;;;;;;;41.30;23.95;;;;;;;10.89;98.12;95144.13;4965762;28;20026;-67
2022/04/23 08:31:23;;;;;;;39.78;23.48;;;;;;;10.41;99.12;95144.97;4973247;28;20031;-66
2022/04/23 08:34:00;;;;;;;39.47;24.27;;;;;;;10.37;99.51;95153.19;4965895;28;20544;-66
2022/04/23 08:36:29;;;;;;;40.30;24.13;;;;;;;10.32;99.66;95157.13;4968586;28;20026;-67
2022/04/23 08:38:56;;;;;;;39.75;23.77;;;;;;;10.26;99.84;95152.44;4973233;28;20035;-66
2022/04/23 08:41:28;;;;;;;38.10;22.38;;;;;;;10.32;100.00;95142.69;4964662;28;20031;-66
2022/04/23 08:44:05;;;;;;;38.78;21.80;;;;;;;10.68;99.09;95151.38;4957600;28;20031;-66
2022/04/23 08:46:39;;;;;;;34.45;21.40;;;;;;;10.89;96.02;95146.84;4972435;28;20042;-67
2022/04/23 08:49:13;;;;;;;36.28;21.35;;;;;;;10.50;98.26;95140.56;4972811;28;20395;-67
2022/04/23 08:51:40;;;;;;;35.85;21.38;;;;;;;10.42;99.07;95132.81;4972054;28;20130;-67
2022/04/23 08:54:11;;;;;;;37.60;22.05;;;;;;;10.16;100.00;95126.72;4972306;28;20031;-68
2022/04/23 08:56:39;;;;;;;34.25;20.13;;;;;;;10.48;99.10;95129.25;4974779;28;20038;-68
2022/04/23 08:59:09;;;;;;;41.50;21.88;;;;;;;10.11;99.76;95118.94;4952055;29;20439;-67
2022/04/23 09:01:36;;;;;;;35.55;20.25;;;;;;;10.26;100.00;95127.81;4953355;28;20432;-67
2022/04/23 09:04:01;;;;;;;31.88;19.85;;;;;;;10.60;98.44;95143.59;4953563;28;20039;-67
2022/04/23 09:06:34;;;;;;;34.08;19.70;;;;;;;10.47;98.50;95137.84;4952804;28;20514;-67
2022/04/23 09:09:17;;;;;;;36.72;21.02;;;;;;;10.15;100.00;95155.25;4952800;28;20440;-67
2022/04/23 09:11:53;;;;;;;36.03;21.45;;;;;;;10.09;99.41;95167.81;4960283;28;20067;-67
2022/04/23 09:14:36;;;;;;;33.80;18.38;;;;;;;10.43;100.00;95157.03;4975311;28;20476;-67
2022/04/23 09:25:37;;;;;;;32.67;19.25;;;;;;;10.40;98.36;95135.94;4975292;28;20034;-67
2022/04/23 09:28:22;;;;;;;36.37;21.23;;;;;;;9.92;100.00;95145.66;4976071;28;20031;-67
2022/04/23 09:30:52;;;;;;;33.38;20.02;;;;;;;10.03;100.00;95136.56;4966493;28;20365;-67
2022/04/23 09:33:18;;;;;;;31.60;18.27;;;;;;;10.42;99.59;95152.75;4976125;28;20045;-67
2022/04/23 09:36:04;;;;;;;33.42;19.35;;;;;;;10.35;98.71;95141.06;4975172;28;20118;-67
2022/04/23 09:38:31;;;;;;;31.30;18.30;;;;;;;10.20;99.43;95137.66;4975679;28;20035;-68
2022/04/23 09:41:17;;;;;;;31.15;17.45;;;;;;;10.17;100.00;95132.97;4975480;28;20045;-67
2022/04/23 09:43:44;;;;;;;30.70;17.67;;;;;;;10.08;98.98;95119.75;4971899;28;20429;-67
2022/04/23 09:46:10;;;;;;;32.45;18.73;;;;;;;10.17;100.00;95132.97;4965223;28;20045;-67
2022/04/23 09:48:38;;;;;;;28.42;17.25;;;;;;;10.55;96.46;95131.13;4970147;28;20106;-67
2022/04/23 09:51:04;;;;;;;30.10;19.52;;;;;;;9.84;99.91;95133.19;4965654;28;20035;-67
2022/04/23 09:53:29;;;;;;;33.00;18.77;;;;;;;9.84;100.00;95140.63;4958639;28;20093;-67
2022/04/23 09:55:59;;;;;;;29.20;17.05;;;;;;;10.05;100.00;95135.00;4957656;29;20039;-67
2022/04/23 09:58:26;;;;;;;;;;;;;;;10.05;100.00;95135.00;4964831;29;20031;-67
2022/04/23 10:00:52;;;;;;;29.50;17.63;;;;;;;10.10;99.90;95136.53;4976511;28;20403;-68
2022/04/23 10:03:19;;;;;;;30.98;18.13;;;;;;;10.29;100.00;95132.50;4961050;28;20038;-67
2022/04/23 10:05:49;;;;;;;30.23;18.02;;;;;;;10.21;99.91;95123.56;4952883;28;20138;-66
2022/04/23 10:08:17;;;;;;;29.77;17.25;;;;;;;10.62;97.82;95133.03;4921124;28;20051;-66
2022/04/23 10:10:47;;;;;;;29.02;16.38;;;;;;;10.51;96.65;95131.19;4930252;28;20050;-66
2022/04/23 10:13:13;;;;;;;29.17;16.38;;;;;;;10.92;95.37;95131.59;4950099;28;20074;-65
2022/04/23 10:15:45;;;;;;;29.88;16.83;;;;;;;10.46;95.05;95123.41;4941831;28;20033;-66
2022/04/23 10:18:12;;;;;;;30.88;18.73;;;;;;;10.29;97.95;95119.59;4948232;28;20385;-66
2022/04/23 10:20:40;;;;;;;29.90;18.35;;;;;;;10.48;97.10;95129.25;4943904;28;20043;-66
2022/04/23 10:23:06;;;;;;;28.27;16.88;;;;;;;10.26;96.94;95134.09;4939066;28;20039;-67
2022/04/23 10:25:45;;;;;;;31.70;17.80;;;;;;;10.58;95.87;95130.31;4950777;28;20044;-65
2022/04/23 10:28:11;;;;;;;;;;;;;;;10.75;94.61;95131.34;4941241;28;20535;-68
2022/04/23 10:30:36;;;;;;;29.77;17.10;;;;;;;11.16;95.07;95137.97;4943324;28;19953;-67
2022/04/23 10:33:26;;;;;;;27.02;15.85;;;;;;;11.59;90.16;95145.69;4944748;28;20162;-71
2022/04/23 10:36:01;;;;;;;;;;;;;;;11.28;91.23;95140.19;4934844;28;20047;-66
2022/04/23 10:38:27;;;;;;;26.95;15.77;;;;;;;11.25;91.42;95141.78;4938154;28;19922;-67
2022/04/23 10:40:55;;;;;;;24.38;13.75;;;;;;;12.06;89.03;95151.34;4953099;28;20046;-67
2022/04/23 10:43:20;;;;;;;25.08;14.07;;;;;;;12.49;85.93;95141.72;4939554;28;20464;-68
2022/04/23 10:45:48;;;;;;;24.25;15.55;;;;;;;11.60;88.92;95147.25;4943895;28;20047;-68
2022/04/23 10:48:19;;;;;;;23.48;15.30;;;;;;;11.33;90.12;95144.47;4939537;28;20043;-68
2022/04/23 10:51:16;;;;;;;25.05;14.65;;;;;;;11.12;90.96;95142.72;4952357;28;20051;-66
2022/04/23 10:53:41;;;;;;;24.58;15.45;;;;;;;11.05;92.17;95151.78;4950388;28;20047;-68
2022/04/23 10:56:11;;;;;;;25.63;15.95;;;;;;;10.89;92.21;95146.84;4952192;28;20035;-67
2022/04/23 10:58:43;;;;;;;27.85;15.75;;;;;;;11.02;94.11;95145.19;4963987;28;20133;-67
2022/04/23 11:01:29;;;;;;;27.65;16.00;;;;;;;11.04;93.64;95150.25;4943697;28;20044;-66
2022/04/23 11:03:56;;;;;;;25.58;15.30;;;;;;;11.07;91.62;95147.47;4944133;28;20075;-66
2022/04/23 11:12:32;;;;;;;28.92;15.52;;;;;;;11.15;92.30;95144.66;4941651;28;20138;-65
2022/04/23 11:15:00;;;;;;;24.95;15.63;;;;;;;10.99;91.93;95139.72;4947755;28;20453;-68
2022/04/23 11:17:30;;;;;;;24.27;14.75;;;;;;;11.52;91.15;95146.56;4947200;28;20046;-67
2022/04/23 11:19:55;;;;;;;;;;;;;;;11.32;90.27;95137.41;4945031;28;20039;-66
2022/04/23 11:22:22;;;;;;;24.83;14.95;;;;;;;12.62;85.32;95142.66;4938737;28;19925;-65
2022/04/23 11:24:53;;;;;;;27.58;15.45;;;;;;;12.34;85.85;95144.69;4951575;28;20047;-67
2022/04/23 11:27:25;;;;;;;27.77;16.27;;;;;;;12.03;86.80;95150.22;4951261;28;20053;-67
2022/04/23 11:29:54;;;;;;;23.00;13.88;;;;;;;13.39;80.47;95140.91;4949877;28;20443;-67
2022/04/23 11:32:30;;;;;;;29.80;15.30;;;;;;;13.18;81.24;95148.34;4946244;28;20058;-66
2022/04/23 11:34:56;;;;;;;23.02;15.23;;;;;;;12.54;82.98;95153.00;4925201;29;20036;-67
2022/04/23 11:37:29;;;;;;;41.53;27.23;;;;;;;13.69;79.67;95156.44;4917910;28;20224;-66
2022/04/23 11:40:13;;;;;;;33.42;15.65;;;;;;;13.00;79.53;95150.66;4951105;28;20043;-67